Terminal Aerodrome Forecast
Issued by NWS

Home | Current Version | Previous Version | Graphics & Text | Print | Product List | Glossary On
Versions: 1 2 3 4 5 6 7 8 9 10 11 12 13 14 15 16 17 18 19 20 21
000
FTUS43 KFGF 141139
TAFBJI
TAF
KBJI 141139Z 1412/1512 26005KT P6SM -SN OVC008
     FM141400 30005KT P6SM BKN008
     FM141800 31009KT P6SM BKN015
     FM150700 30006KT P6SM OVC020=

USA.gov is the U.S. government's official web portal to all federal, state and local government web resources and services.